AirNav   Bose ProFlight Aviation Headset
 
 1446 users online  

4VA9 Pleasantdale Field Airport
Rixeyville, Virginia, USA

GOING TO RIXEYVILLE?


FAA INFORMATION EFFECTIVE 19 JULY 2018

Location

FAA Identifier: 4VA9
Lat/Long: 38-34-08.4420N / 077-55-13.9830W
38-34.140700N / 077-55.233050W
38.5690117 / -77.9205508
(estimated)
Elevation: 420 ft. / 128 m (estimated)
Variation: 09W (1985)
From city: 3 miles E of RIXEYVILLE, VA
Time zone: UTC -4 (UTC -5 during Standard Time)
Zip code: 22737

Airport Operations

Airport use: Private use. Permission required prior to landing
Activation date: 09/1978
Control tower: no
ARTCC: WASHINGTON CENTER
FSS: LEESBURG FLIGHT SERVICE STATION
Attendance: 0900-1700
Wind indicator: yes
Segmented circle: no

Airport Communications

WX AWOS-3 at CJR (4 nm SE): 119.325 (540-727-0523)
WX AWOS-3 at HWY (10 nm E): 120.350 (540-788-4078)

Nearby radio navigation aids

VOR radial/distance  VOR name  Freq  Var
CSNr217/5.0CASANOVA VORTAC116.3006W
LDNr148/21.7LINDEN VORTAC114.3006W
BRVr307/30.1BROOKE VORTAC114.5009W
AMLr232/30.5ARMEL VOR/DME113.5008W
GVEr024/35.1GORDONSVILLE VORTAC115.6006W

 
NDB name  Hdg/Dist  Freq  Var  ID
NAILR004/6.935110WMSQ -- ... --.-
CAVERNS116/27.024509WLUA .-.. ..- .-
SHANNON319/28.623710WEZF . --.. ..-.
DAVEE271/38.422309WDAA -.. .- .-

Airport Services

Runway Information

Runway 12/30

Dimensions: 1800 x 50 ft. / 549 x 15 m
Surface: turf
RUNWAY 12  RUNWAY 30
Traffic pattern: leftleft
Obstructions: trees, 25 ft. from runwaynone

Airport Ownership and Management from official FAA records

Ownership: Privately-owned
Owner: JOHN M. CORRADI
17586 RYLAND CHAPEL ROAD
RIXEYVILLE, VA 22737
Phone 540-718-3717
Manager: JOHN M. CORRADI
17586 RYLAND CHAPEL ROAD
RIXEYVILLE, VA 22737
Phone 540-718-3717

Airport Operational Statistics

Aircraft based on the field: 1
Single engine airplanes: 1
    

Instrument Procedures

There are no published instrument procedures at 4VA9.

Some nearby airports with instrument procedures:

KCJR - Culpeper Regional Airport (4 nm SE)
KHWY - Warrenton-Fauquier Airport (10 nm E)
KOMH - Orange County Airport (20 nm S)
KHEF - Manassas Regional Airport/Harry P. Davis Field (21 nm NE)
KRMN - Stafford Regional Airport (24 nm SE)
 
Loc | Ops | Rwys | IFR | FBO | Links
Com | Nav | Svcs | Stats | Notes


 
Area around 4VA9 (Pleasantdale Field Airport)
 
Road maps at: MapQuest Bing Google
 
Aerial photo
WARNING: Photo may not be current or correct
Aerial photo of 4VA9 (Pleasantdale Field Airport)
Photo taken 09-Jun-2012
looking west.

Do you have a better or more recent aerial photo of Pleasantdale Field Airport that you would like to share? If so, please send us your photo.

 
Sectional chart

 
Airport distance calculator
Flying to Pleasantdale Field Airport? Find the distance to fly.

From to 4VA9

Sunrise and sunset
Times for 15-Aug-2018
 Local
(UTC-4)
 Zulu
(UTC)
Morning civil twilight05:5809:58
Sunrise06:2710:27
Sunset20:0600:06
Evening civil twilight20:3400:34

Current date and time
Zulu (UTC)  15-Aug-2018 20:50:01
Local (UTC-4)  15-Aug-2018 16:50:01
 
METAR
KHWY 
10nm E 
152035Z AUTO 00000KT 10SM CLR 31/18 A3003 RMK AO2 T03130175
KCJR 
10nm W 
152035Z AUTO 00000KT 10SM CLR 31/19 A3004 RMK AO2 T03050192
TAF
KNYG 
30nm E 
1515/1615 VRB06KT 9999 FEW050 FEW150 QNH2999INS FM161000 VRB03KT 9999 SKC QNH3007INS T32/1521Z T20/1609Z
KIAD 
31nm NE 
151739Z 1518/1624 28008KT P6SM FEW040 SCT250 FM160000 22004KT P6SM SCT250 FM161800 21006KT P6SM BKN150
KCHO 
36nm SW 
151739Z 1518/1618 20005KT P6SM FEW050 FM160200 00000KT P6SM FEW250 FM161500 20005KT P6SM SCT200
KDAA 
36nm E 
151700Z 1517/1623 29009KT 9999 SKC QNH3000INS BECMG 1606/1607 21009KT 9999 FEW060 QNH3005INS TX31/1520Z TN20/1610Z
NOTAMs
Click for the latest NOTAMs
NOTAMs are issued by the DoD/FAA and will open in a separate window not controlled by AirNav.

 

 
 

Would you like to see your business listed on this page?

 If your business provides an interesting product or service to pilots, flight crews, aircraft, or users of the Pleasantdale Field Airport, you should consider listing it here.  To start the listing process, click on the button below
 
Add a business
 

Other Pages about Pleasantdale Field Airport

Update a link
 
Copyright © AirNav, LLC. All rights reserved. Privacy Policy  Contact